sensor_id;sensor_type;location;lat;lon;timestamp;temperature;humidity
72772;SHT30;60894;42.544;1.516;2023-02-27T00:00:50;-3.65;49.02
72772;SHT30;60894;42.544;1.516;2023-02-27T00:03:18;-3.57;48.00
72772;SHT30;60894;42.544;1.516;2023-02-27T00:05:45;-3.55;49.62
72772;SHT30;60894;42.544;1.516;2023-02-27T00:08:12;-3.54;48.69
72772;SHT30;60894;42.544;1.516;2023-02-27T00:10:39;-3.44;48.58
72772;SHT30;60894;42.544;1.516;2023-02-27T00:13:06;-3.36;48.77
72772;SHT30;60894;42.544;1.516;2023-02-27T00:15:33;-3.44;48.30
72772;SHT30;60894;42.544;1.516;2023-02-27T00:17:59;-3.29;50.08
72772;SHT30;60894;42.544;1.516;2023-02-27T00:20:28;-3.30;51.24
72772;SHT30;60894;42.544;1.516;2023-02-27T00:22:56;-3.24;50.77
72772;SHT30;60894;42.544;1.516;2023-02-27T00:25:23;-3.43;50.45
72772;SHT30;60894;42.544;1.516;2023-02-27T00:27:50;-3.37;50.40
72772;SHT30;60894;42.544;1.516;2023-02-27T00:30:18;-3.58;50.00
72772;SHT30;60894;42.544;1.516;2023-02-27T00:32:45;-3.62;49.12
72772;SHT30;60894;42.544;1.516;2023-02-27T00:35:12;-3.81;51.25
72772;SHT30;60894;42.544;1.516;2023-02-27T00:37:40;-3.83;51.74
72772;SHT30;60894;42.544;1.516;2023-02-27T00:40:08;-3.82;51.68
72772;SHT30;60894;42.544;1.516;2023-02-27T00:42:36;-3.88;52.71
72772;SHT30;60894;42.544;1.516;2023-02-27T00:45:04;-3.93;52.99
72772;SHT30;60894;42.544;1.516;2023-02-27T00:47:31;-4.32;53.71
72772;SHT30;60894;42.544;1.516;2023-02-27T00:49:59;-4.10;54.24
72772;SHT30;60894;42.544;1.516;2023-02-27T00:52:25;-4.02;54.12
72772;SHT30;60894;42.544;1.516;2023-02-27T00:54:54;-4.12;55.22
72772;SHT30;60894;42.544;1.516;2023-02-27T00:57:21;-4.19;55.04
72772;SHT30;60894;42.544;1.516;2023-02-27T00:59:47;-4.37;54.08
72772;SHT30;60894;42.544;1.516;2023-02-27T01:02:14;-4.30;53.03
72772;SHT30;60894;42.544;1.516;2023-02-27T01:04:41;-4.33;52.89
72772;SHT30;60894;42.544;1.516;2023-02-27T01:07:09;-4.13;52.39
72772;SHT30;60894;42.544;1.516;2023-02-27T01:09:36;-4.29;51.53
72772;SHT30;60894;42.544;1.516;2023-02-27T01:12:04;-4.13;52.43
72772;SHT30;60894;42.544;1.516;2023-02-27T01:14:31;-4.26;51.72
72772;SHT30;60894;42.544;1.516;2023-02-27T01:16:58;-4.32;51.40
72772;SHT30;60894;42.544;1.516;2023-02-27T01:19:25;-4.43;48.60
72772;SHT30;60894;42.544;1.516;2023-02-27T01:21:52;-4.40;49.44
72772;SHT30;60894;42.544;1.516;2023-02-27T01:24:19;-4.34;48.04
72772;SHT30;60894;42.544;1.516;2023-02-27T01:26:46;-4.30;48.44
72772;SHT30;60894;42.544;1.516;2023-02-27T01:29:15;-4.26;49.33
72772;SHT30;60894;42.544;1.516;2023-02-27T01:31:42;-4.39;51.16
72772;SHT30;60894;42.544;1.516;2023-02-27T01:34:08;-4.22;50.80
72772;SHT30;60894;42.544;1.516;2023-02-27T01:36:35;-4.22;51.07
72772;SHT30;60894;42.544;1.516;2023-02-27T01:39:02;-4.23;52.61
72772;SHT30;60894;42.544;1.516;2023-02-27T01:41:29;-4.37;53.57
72772;SHT30;60894;42.544;1.516;2023-02-27T01:43:58;-4.44;51.31
72772;SHT30;60894;42.544;1.516;2023-02-27T01:46:28;-4.43;53.05
72772;SHT30;60894;42.544;1.516;2023-02-27T01:48:59;-4.30;53.23
72772;SHT30;60894;42.544;1.516;2023-02-27T01:51:30;-4.34;52.15
72772;SHT30;60894;42.544;1.516;2023-02-27T01:53:58;-4.33;51.79
72772;SHT30;60894;42.544;1.516;2023-02-27T01:56:28;-4.47;51.10
72772;SHT30;60894;42.544;1.516;2023-02-27T01:58:58;-4.40;51.74
72772;SHT30;60894;42.544;1.516;2023-02-27T02:01:28;-4.54;48.60
72772;SHT30;60894;42.544;1.516;2023-02-27T02:03:59;-4.39;50.12
72772;SHT30;60894;42.544;1.516;2023-02-27T02:06:29;-4.42;49.90
72772;SHT30;60894;42.544;1.516;2023-02-27T02:08:57;-4.46;48.58
72772;SHT30;60894;42.544;1.516;2023-02-27T02:11:25;-4.49;49.03
72772;SHT30;60894;42.544;1.516;2023-02-27T02:13:56;-4.49;47.78
72772;SHT30;60894;42.544;1.516;2023-02-27T02:16:39;-4.50;47.03
72772;SHT30;60894;42.544;1.516;2023-02-27T02:19:33;-4.42;47.41
72772;SHT30;60894;42.544;1.516;2023-02-27T02:28:09;-4.37;48.10
72772;SHT30;60894;42.544;1.516;2023-02-27T02:31:08;-4.29;46.74
72772;SHT30;60894;42.544;1.516;2023-02-27T02:40:00;-4.61;43.39
72772;SHT30;60894;42.544;1.516;2023-02-27T02:42:35;-4.54;42.21
72772;SHT30;60894;42.544;1.516;2023-02-27T02:45:10;-4.71;41.57
72772;SHT30;60894;42.544;1.516;2023-02-27T02:47:51;-4.80;42.55
72772;SHT30;60894;42.544;1.516;2023-02-27T02:50:26;-4.67;43.20
72772;SHT30;60894;42.544;1.516;2023-02-27T02:53:00;-4.81;44.60
72772;SHT30;60894;42.544;1.516;2023-02-27T02:55:33;-4.80;47.14
72772;SHT30;60894;42.544;1.516;2023-02-27T02:58:04;-4.74;47.57
72772;SHT30;60894;42.544;1.516;2023-02-27T03:00:35;-4.84;47.78
72772;SHT30;60894;42.544;1.516;2023-02-27T03:03:08;-4.95;45.07
72772;SHT30;60894;42.544;1.516;2023-02-27T03:05:39;-5.17;43.77
72772;SHT30;60894;42.544;1.516;2023-02-27T03:08:12;-4.99;42.78
72772;SHT30;60894;42.544;1.516;2023-02-27T03:10:45;-4.70;44.34
72772;SHT30;60894;42.544;1.516;2023-02-27T03:13:20;-4.61;43.12
72772;SHT30;60894;42.544;1.516;2023-02-27T03:15:51;-4.46;43.61
72772;SHT30;60894;42.544;1.516;2023-02-27T03:18:23;-4.49;42.46
72772;SHT30;60894;42.544;1.516;2023-02-27T03:20:54;-4.49;42.78
72772;SHT30;60894;42.544;1.516;2023-02-27T03:23:26;-4.44;42.27
72772;SHT30;60894;42.544;1.516;2023-02-27T03:25:58;-4.53;41.68
72772;SHT30;60894;42.544;1.516;2023-02-27T03:28:28;-4.60;42.55
72772;SHT30;60894;42.544;1.516;2023-02-27T03:31:00;-4.74;43.30
72772;SHT30;60894;42.544;1.516;2023-02-27T03:33:33;-4.81;42.73
72772;SHT30;60894;42.544;1.516;2023-02-27T03:36:07;-4.91;42.43
72772;SHT30;60894;42.544;1.516;2023-02-27T03:38:38;-4.95;44.00
72772;SHT30;60894;42.544;1.516;2023-02-27T03:41:13;-4.98;43.85
72772;SHT30;60894;42.544;1.516;2023-02-27T03:43:48;-4.92;43.12
72772;SHT30;60894;42.544;1.516;2023-02-27T03:46:20;-4.96;43.08
72772;SHT30;60894;42.544;1.516;2023-02-27T03:48:48;-5.02;43.53
72772;SHT30;60894;42.544;1.516;2023-02-27T03:51:17;-4.95;42.24
72772;SHT30;60894;42.544;1.516;2023-02-27T03:53:48;-5.09;41.92
72772;SHT30;60894;42.544;1.516;2023-02-27T03:56:22;-4.95;43.87
72772;SHT30;60894;42.544;1.516;2023-02-27T03:58:51;-5.02;42.35
72772;SHT30;60894;42.544;1.516;2023-02-27T04:01:18;-5.27;42.88
72772;SHT30;60894;42.544;1.516;2023-02-27T04:03:49;-5.23;42.97
72772;SHT30;60894;42.544;1.516;2023-02-27T04:06:17;-5.39;43.41
72772;SHT30;60894;42.544;1.516;2023-02-27T04:09:06;-5.32;44.12
72772;SHT30;60894;42.544;1.516;2023-02-27T04:11:43;-5.25;42.83
72772;SHT30;60894;42.544;1.516;2023-02-27T04:14:22;-5.06;42.75
72772;SHT30;60894;42.544;1.516;2023-02-27T04:17:22;-5.08;42.08
72772;SHT30;60894;42.544;1.516;2023-02-27T04:20:01;-5.09;42.55
72772;SHT30;60894;42.544;1.516;2023-02-27T04:22:35;-5.11;41.60
72772;SHT30;60894;42.544;1.516;2023-02-27T04:25:23;-5.11;42.17
72772;SHT30;60894;42.544;1.516;2023-02-27T04:27:56;-5.11;39.73
72772;SHT30;60894;42.544;1.516;2023-02-27T04:30:28;-5.16;39.06
72772;SHT30;60894;42.544;1.516;2023-02-27T04:33:02;-5.12;41.17
72772;SHT30;60894;42.544;1.516;2023-02-27T04:35:41;-5.25;39.33
72772;SHT30;60894;42.544;1.516;2023-02-27T04:38:16;-4.96;40.82
72772;SHT30;60894;42.544;1.516;2023-02-27T04:40:47;-4.89;40.36
72772;SHT30;60894;42.544;1.516;2023-02-27T04:43:18;-4.94;40.40
72772;SHT30;60894;42.544;1.516;2023-02-27T04:45:47;-4.84;40.68
72772;SHT30;60894;42.544;1.516;2023-02-27T04:48:21;-5.02;39.01
72772;SHT30;60894;42.544;1.516;2023-02-27T04:50:53;-4.84;41.01
72772;SHT30;60894;42.544;1.516;2023-02-27T04:53:23;-4.91;41.92
72772;SHT30;60894;42.544;1.516;2023-02-27T04:55:53;-4.87;43.09
72772;SHT30;60894;42.544;1.516;2023-02-27T04:58:24;-5.12;42.29
72772;SHT30;60894;42.544;1.516;2023-02-27T05:00:56;-5.35;41.68
72772;SHT30;60894;42.544;1.516;2023-02-27T05:03:28;-4.95;42.17
72772;SHT30;60894;42.544;1.516;2023-02-27T05:05:58;-5.33;41.08
72772;SHT30;60894;42.544;1.516;2023-02-27T05:08:30;-5.43;41.69
72772;SHT30;60894;42.544;1.516;2023-02-27T05:11:03;-5.43;41.92
72772;SHT30;60894;42.544;1.516;2023-02-27T05:13:37;-5.37;43.62
72772;SHT30;60894;42.544;1.516;2023-02-27T05:16:09;-5.33;40.70
72772;SHT30;60894;42.544;1.516;2023-02-27T05:18:37;-5.25;40.98
72772;SHT30;60894;42.544;1.516;2023-02-27T05:21:09;-5.33;42.04
72772;SHT30;60894;42.544;1.516;2023-02-27T05:23:44;-5.57;43.02
72772;SHT30;60894;42.544;1.516;2023-02-27T05:26:19;-5.62;41.01
72772;SHT30;60894;42.544;1.516;2023-02-27T05:28:52;-5.43;40.86
72772;SHT30;60894;42.544;1.516;2023-02-27T05:31:25;-5.43;40.10
72772;SHT30;60894;42.544;1.516;2023-02-27T05:33:58;-5.30;41.37
72772;SHT30;60894;42.544;1.516;2023-02-27T05:36:32;-5.23;43.27
72772;SHT30;60894;42.544;1.516;2023-02-27T05:39:03;-5.23;43.63
72772;SHT30;60894;42.544;1.516;2023-02-27T05:41:32;-5.25;43.59
72772;SHT30;60894;42.544;1.516;2023-02-27T05:44:05;-5.17;43.23
72772;SHT30;60894;42.544;1.516;2023-02-27T05:46:36;-5.20;43.02
72772;SHT30;60894;42.544;1.516;2023-02-27T05:49:06;-5.09;42.88
72772;SHT30;60894;42.544;1.516;2023-02-27T05:51:36;-5.15;43.47
72772;SHT30;60894;42.544;1.516;2023-02-27T05:54:09;-5.16;45.65
72772;SHT30;60894;42.544;1.516;2023-02-27T05:56:37;-5.15;46.24
72772;SHT30;60894;42.544;1.516;2023-02-27T05:59:09;-5.12;46.18
72772;SHT30;60894;42.544;1.516;2023-02-27T06:01:39;-5.08;45.88
72772;SHT30;60894;42.544;1.516;2023-02-27T06:04:05;-4.88;45.25
72772;SHT30;60894;42.544;1.516;2023-02-27T06:06:34;-4.89;43.14
72772;SHT30;60894;42.544;1.516;2023-02-27T06:09:01;-5.11;39.23
72772;SHT30;60894;42.544;1.516;2023-02-27T06:11:28;-5.13;39.37
72772;SHT30;60894;42.544;1.516;2023-02-27T06:13:55;-5.13;38.19
72772;SHT30;60894;42.544;1.516;2023-02-27T06:16:23;-4.99;39.52
72772;SHT30;60894;42.544;1.516;2023-02-27T06:18:50;-5.17;38.81
72772;SHT30;60894;42.544;1.516;2023-02-27T06:21:17;-5.27;39.09
72772;SHT30;60894;42.544;1.516;2023-02-27T06:23:44;-5.27;40.65
72772;SHT30;60894;42.544;1.516;2023-02-27T06:26:11;-5.23;41.85
72772;SHT30;60894;42.544;1.516;2023-02-27T06:28:38;-5.06;45.05
72772;SHT30;60894;42.544;1.516;2023-02-27T06:31:07;-4.94;42.57
72772;SHT30;60894;42.544;1.516;2023-02-27T06:33:35;-4.94;40.50
72772;SHT30;60894;42.544;1.516;2023-02-27T06:36:02;-4.89;41.04
72772;SHT30;60894;42.544;1.516;2023-02-27T06:38:29;-4.92;40.27
72772;SHT30;60894;42.544;1.516;2023-02-27T06:40:56;-5.01;39.33
72772;SHT30;60894;42.544;1.516;2023-02-27T06:43:23;-5.11;39.99
72772;SHT30;60894;42.544;1.516;2023-02-27T06:45:52;-5.16;40.28
72772;SHT30;60894;42.544;1.516;2023-02-27T06:48:19;-4.98;43.15
72772;SHT30;60894;42.544;1.516;2023-02-27T06:50:51;-4.94;43.52
72772;SHT30;60894;42.544;1.516;2023-02-27T06:53:18;-4.81;43.50
72772;SHT30;60894;42.544;1.516;2023-02-27T06:55:45;-4.85;42.02
72772;SHT30;60894;42.544;1.516;2023-02-27T06:58:12;-4.99;39.81
72772;SHT30;60894;42.544;1.516;2023-02-27T07:00:38;-4.98;41.78
72772;SHT30;60894;42.544;1.516;2023-02-27T07:03:05;-4.80;43.10
72772;SHT30;60894;42.544;1.516;2023-02-27T07:05:33;-4.68;42.96
72772;SHT30;60894;42.544;1.516;2023-02-27T07:08:01;-4.70;41.66
72772;SHT30;60894;42.544;1.516;2023-02-27T07:10:29;-4.75;40.84
72772;SHT30;60894;42.544;1.516;2023-02-27T07:12:56;-5.09;40.75
72772;SHT30;60894;42.544;1.516;2023-02-27T07:15:22;-5.02;40.89
72772;SHT30;60894;42.544;1.516;2023-02-27T07:17:49;-4.91;41.78
72772;SHT30;60894;42.544;1.516;2023-02-27T07:20:18;-4.87;42.44
72772;SHT30;60894;42.544;1.516;2023-02-27T07:22:48;-4.68;39.85
72772;SHT30;60894;42.544;1.516;2023-02-27T07:25:16;-4.68;39.97
72772;SHT30;60894;42.544;1.516;2023-02-27T07:27:43;-4.61;41.69
72772;SHT30;60894;42.544;1.516;2023-02-27T07:30:11;-4.52;41.64
72772;SHT30;60894;42.544;1.516;2023-02-27T07:32:38;-4.50;39.76
72772;SHT30;60894;42.544;1.516;2023-02-27T07:35:06;-4.26;41.27
72772;SHT30;60894;42.544;1.516;2023-02-27T07:37:34;-4.14;41.15
72772;SHT30;60894;42.544;1.516;2023-02-27T07:40:01;-4.14;40.05
72772;SHT30;60894;42.544;1.516;2023-02-27T07:42:31;-4.06;39.73
72772;SHT30;60894;42.544;1.516;2023-02-27T07:44:58;-3.95;40.66
72772;SHT30;60894;42.544;1.516;2023-02-27T07:47:26;-3.89;39.09
72772;SHT30;60894;42.544;1.516;2023-02-27T07:49:54;-3.93;39.10
72772;SHT30;60894;42.544;1.516;2023-02-27T07:52:21;-3.91;39.49
72772;SHT30;60894;42.544;1.516;2023-02-27T07:54:48;-3.74;39.41
72772;SHT30;60894;42.544;1.516;2023-02-27T07:57:15;-3.62;40.74
72772;SHT30;60894;42.544;1.516;2023-02-27T07:59:43;-3.65;40.44
72772;SHT30;60894;42.544;1.516;2023-02-27T08:02:10;-3.52;39.47
72772;SHT30;60894;42.544;1.516;2023-02-27T08:04:37;-3.55;39.00
72772;SHT30;60894;42.544;1.516;2023-02-27T08:07:04;-3.41;38.83
72772;SHT30;60894;42.544;1.516;2023-02-27T08:09:31;-3.36;38.44
72772;SHT30;60894;42.544;1.516;2023-02-27T08:11:58;-3.30;38.45
72772;SHT30;60894;42.544;1.516;2023-02-27T08:14:27;-3.31;39.70
72772;SHT30;60894;42.544;1.516;2023-02-27T08:16:55;-3.29;38.87
72772;SHT30;60894;42.544;1.516;2023-02-27T08:19:22;-3.33;39.31
72772;SHT30;60894;42.544;1.516;2023-02-27T08:21:49;-3.29;38.89
72772;SHT30;60894;42.544;1.516;2023-02-27T08:24:16;-3.27;38.40
72772;SHT30;60894;42.544;1.516;2023-02-27T08:26:43;-3.30;38.83
72772;SHT30;60894;42.544;1.516;2023-02-27T08:29:09;-3.39;39.49
72772;SHT30;60894;42.544;1.516;2023-02-27T08:31:36;-3.24;38.65
72772;SHT30;60894;42.544;1.516;2023-02-27T08:34:05;-3.27;38.71
72772;SHT30;60894;42.544;1.516;2023-02-27T08:36:32;-3.30;38.24
72772;SHT30;60894;42.544;1.516;2023-02-27T08:38:59;-3.23;37.69
72772;SHT30;60894;42.544;1.516;2023-02-27T08:41:26;-3.39;36.57
72772;SHT30;60894;42.544;1.516;2023-02-27T08:43:52;-3.34;39.36
72772;SHT30;60894;42.544;1.516;2023-02-27T08:46:19;-3.09;37.80
72772;SHT30;60894;42.544;1.516;2023-02-27T08:48:46;-3.03;36.70
72772;SHT30;60894;42.544;1.516;2023-02-27T08:51:14;-2.93;37.90
72772;SHT30;60894;42.544;1.516;2023-02-27T08:53:41;-2.85;36.81
72772;SHT30;60894;42.544;1.516;2023-02-27T08:56:08;-2.70;37.49
72772;SHT30;60894;42.544;1.516;2023-02-27T08:58:35;-2.75;35.85
72772;SHT30;60894;42.544;1.516;2023-02-27T09:01:02;-2.70;35.33
72772;SHT30;60894;42.544;1.516;2023-02-27T09:03:29;-2.57;35.67
72772;SHT30;60894;42.544;1.516;2023-02-27T09:05:56;-2.49;35.31
72772;SHT30;60894;42.544;1.516;2023-02-27T09:08:24;-2.47;35.83
72772;SHT30;60894;42.544;1.516;2023-02-27T09:10:55;-2.42;34.91
72772;SHT30;60894;42.544;1.516;2023-02-27T09:13:22;-2.31;34.78
72772;SHT30;60894;42.544;1.516;2023-02-27T09:15:50;-2.17;35.83
72772;SHT30;60894;42.544;1.516;2023-02-27T09:18:17;-2.08;34.54
72772;SHT30;60894;42.544;1.516;2023-02-27T09:20:44;-1.94;34.58
72772;SHT30;60894;42.544;1.516;2023-02-27T09:23:11;-1.90;34.62
72772;SHT30;60894;42.544;1.516;2023-02-27T09:25:39;-1.91;34.01
72772;SHT30;60894;42.544;1.516;2023-02-27T09:28:06;-1.96;34.22
72772;SHT30;60894;42.544;1.516;2023-02-27T09:30:33;-1.72;33.92
72772;SHT30;60894;42.544;1.516;2023-02-27T09:33:00;-1.65;33.56
72772;SHT30;60894;42.544;1.516;2023-02-27T09:35:27;-1.79;33.36
72772;SHT30;60894;42.544;1.516;2023-02-27T09:37:55;-1.76;33.58
72772;SHT30;60894;42.544;1.516;2023-02-27T09:40:24;-1.51;35.27
72772;SHT30;60894;42.544;1.516;2023-02-27T09:42:55;-1.51;34.25
72772;SHT30;60894;42.544;1.516;2023-02-27T09:45:24;-1.35;35.19
72772;SHT30;60894;42.544;1.516;2023-02-27T09:47:53;-1.18;34.40
72772;SHT30;60894;42.544;1.516;2023-02-27T09:50:32;-1.30;33.29
72772;SHT30;60894;42.544;1.516;2023-02-27T09:53:01;-1.15;34.46
72772;SHT30;60894;42.544;1.516;2023-02-27T09:55:32;-1.08;33.01
72772;SHT30;60894;42.544;1.516;2023-02-27T09:58:05;-1.04;32.12
72772;SHT30;60894;42.544;1.516;2023-02-27T10:00:43;-0.83;34.49
72772;SHT30;60894;42.544;1.516;2023-02-27T10:03:29;-0.77;32.41
72772;SHT30;60894;42.544;1.516;2023-02-27T10:06:12;-0.53;34.39
72772;SHT30;60894;42.544;1.516;2023-02-27T10:08:48;-0.45;33.67
72772;SHT30;60894;42.544;1.516;2023-02-27T10:11:22;-0.37;33.66
72772;SHT30;60894;42.544;1.516;2023-02-27T10:13:58;-0.48;33.48
72772;SHT30;60894;42.544;1.516;2023-02-27T10:16:31;-0.32;33.79
72772;SHT30;60894;42.544;1.516;2023-02-27T10:19:01;-0.30;33.84
72772;SHT30;60894;42.544;1.516;2023-02-27T10:21:31;-0.08;36.42
72772;SHT30;60894;42.544;1.516;2023-02-27T10:24:04;0.20;36.20
72772;SHT30;60894;42.544;1.516;2023-02-27T10:26:36;0.45;34.09
72772;SHT30;60894;42.544;1.516;2023-02-27T10:29:15;0.46;33.89
72772;SHT30;60894;42.544;1.516;2023-02-27T10:31:45;0.76;32.75
72772;SHT30;60894;42.544;1.516;2023-02-27T10:34:14;0.78;33.42
72772;SHT30;60894;42.544;1.516;2023-02-27T10:36:42;0.76;31.20
72772;SHT30;60894;42.544;1.516;2023-02-27T10:39:11;0.63;32.16
72772;SHT30;60894;42.544;1.516;2023-02-27T10:41:39;0.83;32.25
72772;SHT30;60894;42.544;1.516;2023-02-27T10:44:13;0.84;31.96
72772;SHT30;60894;42.544;1.516;2023-02-27T10:46:40;0.54;31.35
72772;SHT30;60894;42.544;1.516;2023-02-27T10:49:13;0.77;30.79
72772;SHT30;60894;42.544;1.516;2023-02-27T10:51:41;0.73;30.52
72772;SHT30;60894;42.544;1.516;2023-02-27T10:54:21;1.32;31.77
72772;SHT30;60894;42.544;1.516;2023-02-27T10:56:50;1.49;29.74
72772;SHT30;60894;42.544;1.516;2023-02-27T10:59:22;2.35;30.73
72772;SHT30;60894;42.544;1.516;2023-02-27T11:01:52;2.85;29.25
72772;SHT30;60894;42.544;1.516;2023-02-27T11:04:26;2.92;28.22
72772;SHT30;60894;42.544;1.516;2023-02-27T11:06:54;3.16;27.98
72772;SHT30;60894;42.544;1.516;2023-02-27T11:09:23;3.27;28.74
72772;SHT30;60894;42.544;1.516;2023-02-27T11:11:50;2.63;26.98
72772;SHT30;60894;42.544;1.516;2023-02-27T11:14:26;2.51;29.97
72772;SHT30;60894;42.544;1.516;2023-02-27T11:16:54;2.51;29.27
72772;SHT30;60894;42.544;1.516;2023-02-27T11:19:30;2.56;30.69
72772;SHT30;60894;42.544;1.516;2023-02-27T11:22:06;2.62;28.93
72772;SHT30;60894;42.544;1.516;2023-02-27T11:24:39;2.25;27.93
72772;SHT30;60894;42.544;1.516;2023-02-27T11:27:17;1.86;27.98
72772;SHT30;60894;42.544;1.516;2023-02-27T11:29:56;1.80;29.45
72772;SHT30;60894;42.544;1.516;2023-02-27T11:32:35;1.77;29.48
72772;SHT30;60894;42.544;1.516;2023-02-27T11:35:03;1.58;29.35
72772;SHT30;60894;42.544;1.516;2023-02-27T11:37:33;1.89;31.08
72772;SHT30;60894;42.544;1.516;2023-02-27T11:40:10;2.07;30.43
72772;SHT30;60894;42.544;1.516;2023-02-27T11:42:43;2.35;29.73
72772;SHT30;60894;42.544;1.516;2023-02-27T11:45:28;2.25;29.52
72772;SHT30;60894;42.544;1.516;2023-02-27T11:47:58;2.45;29.68
72772;SHT30;60894;42.544;1.516;2023-02-27T11:50:46;2.72;29.14
72772;SHT30;60894;42.544;1.516;2023-02-27T11:53:42;2.99;29.17
72772;SHT30;60894;42.544;1.516;2023-02-27T11:56:12;3.41;29.47
72772;SHT30;60894;42.544;1.516;2023-02-27T11:58:45;3.78;27.67
72772;SHT30;60894;42.544;1.516;2023-02-27T12:01:19;4.26;28.07
72772;SHT30;60894;42.544;1.516;2023-02-27T12:03:52;4.49;27.72
72772;SHT30;60894;42.544;1.516;2023-02-27T12:06:24;4.22;27.35
72772;SHT30;60894;42.544;1.516;2023-02-27T12:08:56;4.24;27.58
72772;SHT30;60894;42.544;1.516;2023-02-27T12:11:26;4.02;27.31
72772;SHT30;60894;42.544;1.516;2023-02-27T12:13:58;3.86;28.49
72772;SHT30;60894;42.544;1.516;2023-02-27T12:16:31;3.84;28.67
72772;SHT30;60894;42.544;1.516;2023-02-27T12:19:04;3.35;28.18
72772;SHT30;60894;42.544;1.516;2023-02-27T12:21:37;3.77;28.56
72772;SHT30;60894;42.544;1.516;2023-02-27T12:24:15;3.54;28.72
72772;SHT30;60894;42.544;1.516;2023-02-27T12:26:45;3.58;28.76
72772;SHT30;60894;42.544;1.516;2023-02-27T12:29:18;3.88;28.49
72772;SHT30;60894;42.544;1.516;2023-02-27T12:31:51;3.99;28.27
72772;SHT30;60894;42.544;1.516;2023-02-27T12:34:23;3.85;28.30
72772;SHT30;60894;42.544;1.516;2023-02-27T12:37:02;4.05;28.47
72772;SHT30;60894;42.544;1.516;2023-02-27T12:39:30;3.96;29.50
72772;SHT30;60894;42.544;1.516;2023-02-27T12:42:17;4.13;29.61
72772;SHT30;60894;42.544;1.516;2023-02-27T12:44:57;4.02;29.83
72772;SHT30;60894;42.544;1.516;2023-02-27T12:47:34;3.86;30.48
72772;SHT30;60894;42.544;1.516;2023-02-27T12:50:05;3.85;30.68
72772;SHT30;60894;42.544;1.516;2023-02-27T12:52:45;3.60;31.29
72772;SHT30;60894;42.544;1.516;2023-02-27T12:55:18;3.60;31.87
72772;SHT30;60894;42.544;1.516;2023-02-27T12:58:10;3.43;32.16
72772;SHT30;60894;42.544;1.516;2023-02-27T13:00:44;3.21;32.99
72772;SHT30;60894;42.544;1.516;2023-02-27T13:03:15;3.10;33.27
72772;SHT30;60894;42.544;1.516;2023-02-27T13:05:47;3.12;33.40
72772;SHT30;60894;42.544;1.516;2023-02-27T13:11:24;3.23;33.65
72772;SHT30;60894;42.544;1.516;2023-02-27T13:13:55;3.54;33.82
72772;SHT30;60894;42.544;1.516;2023-02-27T13:16:28;3.41;34.13
72772;SHT30;60894;42.544;1.516;2023-02-27T13:19:03;3.38;34.45
72772;SHT30;60894;42.544;1.516;2023-02-27T13:21:35;3.38;35.84
72772;SHT30;60894;42.544;1.516;2023-02-27T13:24:15;3.45;36.71
72772;SHT30;60894;42.544;1.516;2023-02-27T13:26:46;3.48;37.00
72772;SHT30;60894;42.544;1.516;2023-02-27T13:29:17;3.51;36.98
72772;SHT30;60894;42.544;1.516;2023-02-27T13:31:52;3.50;37.21
72772;SHT30;60894;42.544;1.516;2023-02-27T13:34:27;3.47;37.57
72772;SHT30;60894;42.544;1.516;2023-02-27T13:36:59;3.60;37.66
72772;SHT30;60894;42.544;1.516;2023-02-27T13:39:37;3.60;38.58
72772;SHT30;60894;42.544;1.516;2023-02-27T13:45:48;3.28;38.71
72772;SHT30;60894;42.544;1.516;2023-02-27T13:48:44;3.09;38.59
72772;SHT30;60894;42.544;1.516;2023-02-27T13:51:41;2.97;39.05
72772;SHT30;60894;42.544;1.516;2023-02-27T13:54:33;2.99;39.57
72772;SHT30;60894;42.544;1.516;2023-02-27T13:57:16;2.95;39.82
72772;SHT30;60894;42.544;1.516;2023-02-27T14:00:01;3.04;40.18
72772;SHT30;60894;42.544;1.516;2023-02-27T14:02:34;3.00;39.99
72772;SHT30;60894;42.544;1.516;2023-02-27T14:05:06;2.90;40.53
72772;SHT30;60894;42.544;1.516;2023-02-27T14:07:56;2.88;42.16
72772;SHT30;60894;42.544;1.516;2023-02-27T14:10:25;2.72;42.48
72772;SHT30;60894;42.544;1.516;2023-02-27T14:12:53;2.81;43.55
72772;SHT30;60894;42.544;1.516;2023-02-27T14:15:54;2.72;42.80
72772;SHT30;60894;42.544;1.516;2023-02-27T14:21:56;2.66;43.30
72772;SHT30;60894;42.544;1.516;2023-02-27T14:24:32;2.82;43.20
72772;SHT30;60894;42.544;1.516;2023-02-27T14:27:14;2.66;44.23
72772;SHT30;60894;42.544;1.516;2023-02-27T14:29:44;2.78;43.95
72772;SHT30;60894;42.544;1.516;2023-02-27T14:32:16;2.79;44.02
72772;SHT30;60894;42.544;1.516;2023-02-27T14:34:45;2.71;44.37
72772;SHT30;60894;42.544;1.516;2023-02-27T14:37:14;2.79;44.31
72772;SHT30;60894;42.544;1.516;2023-02-27T14:39:46;2.86;44.78
72772;SHT30;60894;42.544;1.516;2023-02-27T14:45:18;3.06;44.68
72772;SHT30;60894;42.544;1.516;2023-02-27T14:47:46;2.86;44.92
72772;SHT30;60894;42.544;1.516;2023-02-27T14:50:21;2.95;44.89
72772;SHT30;60894;42.544;1.516;2023-02-27T14:52:49;2.81;45.31
72772;SHT30;60894;42.544;1.516;2023-02-27T14:55:19;2.76;45.15
72772;SHT30;60894;42.544;1.516;2023-02-27T14:57:53;2.75;45.29
72772;SHT30;60894;42.544;1.516;2023-02-27T15:00:38;2.65;45.62
72772;SHT30;60894;42.544;1.516;2023-02-27T15:03:21;2.68;45.82
72772;SHT30;60894;42.544;1.516;2023-02-27T15:05:51;2.72;46.60
72772;SHT30;60894;42.544;1.516;2023-02-27T15:08:20;2.44;47.15
72772;SHT30;60894;42.544;1.516;2023-02-27T15:10:50;2.32;47.67
72772;SHT30;60894;42.544;1.516;2023-02-27T15:13:24;2.31;47.30
72772;SHT30;60894;42.544;1.516;2023-02-27T15:16:27;2.45;47.23
72772;SHT30;60894;42.544;1.516;2023-02-27T15:18:58;2.28;47.39
72772;SHT30;60894;42.544;1.516;2023-02-27T15:21:29;2.11;47.72
72772;SHT30;60894;42.544;1.516;2023-02-27T15:23:58;2.07;47.81
72772;SHT30;60894;42.544;1.516;2023-02-27T15:26:28;1.93;46.63
72772;SHT30;60894;42.544;1.516;2023-02-27T15:28:56;1.87;46.82
72772;SHT30;60894;42.544;1.516;2023-02-27T15:31:25;1.73;47.01
72772;SHT30;60894;42.544;1.516;2023-02-27T15:33:54;1.60;46.63
72772;SHT30;60894;42.544;1.516;2023-02-27T15:36:23;1.46;46.67
72772;SHT30;60894;42.544;1.516;2023-02-27T15:39:05;1.31;45.50
72772;SHT30;60894;42.544;1.516;2023-02-27T15:41:34;1.09;45.72
72772;SHT30;60894;42.544;1.516;2023-02-27T15:44:02;0.98;45.09
72772;SHT30;60894;42.544;1.516;2023-02-27T15:46:29;1.02;45.17
72772;SHT30;60894;42.544;1.516;2023-02-27T15:48:57;0.98;45.59
72772;SHT30;60894;42.544;1.516;2023-02-27T15:51:25;0.91;45.28
72772;SHT30;60894;42.544;1.516;2023-02-27T15:53:54;0.81;44.89
72772;SHT30;60894;42.544;1.516;2023-02-27T15:56:25;0.66;43.63
72772;SHT30;60894;42.544;1.516;2023-02-27T15:58:54;0.45;42.65
72772;SHT30;60894;42.544;1.516;2023-02-27T16:01:24;0.33;42.88
72772;SHT30;60894;42.544;1.516;2023-02-27T16:03:53;0.35;42.66
72772;SHT30;60894;42.544;1.516;2023-02-27T16:06:24;0.16;42.36
72772;SHT30;60894;42.544;1.516;2023-02-27T16:08:53;0.13;42.59
72772;SHT30;60894;42.544;1.516;2023-02-27T16:11:22;0.25;42.66
72772;SHT30;60894;42.544;1.516;2023-02-27T16:13:50;0.15;42.15
72772;SHT30;60894;42.544;1.516;2023-02-27T16:16:36;0.30;41.98
72772;SHT30;60894;42.544;1.516;2023-02-27T16:19:15;0.32;42.34
72772;SHT30;60894;42.544;1.516;2023-02-27T16:22:01;0.42;41.75
72772;SHT30;60894;42.544;1.516;2023-02-27T16:24:29;0.32;41.38
72772;SHT30;60894;42.544;1.516;2023-02-27T16:26:57;0.36;41.59
72772;SHT30;60894;42.544;1.516;2023-02-27T16:29:30;0.39;41.47